sensor_id;sensor_type;location;lat;lon;timestamp;pressure;altitude;pressure_sealevel;temperature;humidity
29121;BME280;16191;49.548;8.658;2023-03-18T00:01:52;99898.06;;;11.10;98.22
29121;BME280;16191;49.548;8.658;2023-03-18T00:04:19;99903.97;;;11.14;99.17
29121;BME280;16191;49.548;8.658;2023-03-18T00:06:46;99905.50;;;11.01;98.84
29121;BME280;16191;49.548;8.658;2023-03-18T00:09:13;99901.56;;;11.09;99.11
29121;BME280;16191;49.548;8.658;2023-03-18T00:11:40;99905.66;;;11.15;97.90
29121;BME280;16191;49.548;8.658;2023-03-18T00:14:07;99902.34;;;11.11;96.30
29121;BME280;16191;49.548;8.658;2023-03-18T00:16:35;99904.81;;;11.14;95.99
29121;BME280;16191;49.548;8.658;2023-03-18T00:19:03;99909.28;;;11.12;95.09
29121;BME280;16191;49.548;8.658;2023-03-18T00:21:30;99901.22;;;11.17;97.06
29121;BME280;16191;49.548;8.658;2023-03-18T00:23:57;99906.03;;;11.07;98.44
29121;BME280;16191;49.548;8.658;2023-03-18T00:26:25;99908.34;;;11.13;96.60
29121;BME280;16191;49.548;8.658;2023-03-18T00:28:54;99914.41;;;11.14;99.07
29121;BME280;16191;49.548;8.658;2023-03-18T00:31:22;99919.50;;;11.17;97.86
29121;BME280;16191;49.548;8.658;2023-03-18T00:33:49;99920.28;;;11.19;97.46
29121;BME280;16191;49.548;8.658;2023-03-18T00:36:16;99919.50;;;11.17;97.71
29121;BME280;16191;49.548;8.658;2023-03-18T00:38:45;99917.72;;;11.17;97.56
29121;BME280;16191;49.548;8.658;2023-03-18T00:41:12;99921.66;;;11.26;97.76
29121;BME280;16191;49.548;8.658;2023-03-18T00:43:45;99927.97;;;11.22;97.87
29121;BME280;16191;49.548;8.658;2023-03-18T00:46:15;99932.28;;;11.23;98.01
29121;BME280;16191;49.548;8.658;2023-03-18T00:48:43;99938.28;;;11.25;97.18
29121;BME280;16191;49.548;8.658;2023-03-18T00:51:10;99933.72;;;11.28;97.57
29121;BME280;16191;49.548;8.658;2023-03-18T00:53:40;99934.56;;;11.29;97.31
29121;BME280;16191;49.548;8.658;2023-03-18T00:56:07;99926.66;;;11.30;97.05
29121;BME280;16191;49.548;8.658;2023-03-18T00:58:34;99934.69;;;11.26;96.88
29121;BME280;16191;49.548;8.658;2023-03-18T01:01:04;99938.09;;;11.28;96.32
29121;BME280;16191;49.548;8.658;2023-03-18T01:03:32;99935.72;;;11.23;96.72
29121;BME280;16191;49.548;8.658;2023-03-18T01:06:00;99932.28;;;11.23;97.63
29121;BME280;16191;49.548;8.658;2023-03-18T01:08:28;99932.19;;;11.24;98.48
29121;BME280;16191;49.548;8.658;2023-03-18T01:10:56;99931.06;;;11.11;98.38
29121;BME280;16191;49.548;8.658;2023-03-18T01:13:23;99927.25;;;11.18;100.00
29121;BME280;16191;49.548;8.658;2023-03-18T01:15:51;99938.47;;;11.20;100.00
29121;BME280;16191;49.548;8.658;2023-03-18T01:18:18;99931.41;;;11.22;100.00
29121;BME280;16191;49.548;8.658;2023-03-18T01:20:45;99925.22;;;11.25;100.00
29121;BME280;16191;49.548;8.658;2023-03-18T01:23:13;99931.50;;;11.21;100.00
29121;BME280;16191;49.548;8.658;2023-03-18T01:25:42;99929.03;;;11.18;100.00
29121;BME280;16191;49.548;8.658;2023-03-18T01:28:13;99928.25;;;11.16;100.00
29121;BME280;16191;49.548;8.658;2023-03-18T01:30:40;99938.41;;;11.22;100.00
29121;BME280;16191;49.548;8.658;2023-03-18T01:33:07;99928.25;;;11.16;100.00
29121;BME280;16191;49.548;8.658;2023-03-18T01:35:35;99926.78;;;11.10;100.00
29121;BME280;16191;49.548;8.658;2023-03-18T01:38:03;99929.25;;;11.13;100.00
29121;BME280;16191;49.548;8.658;2023-03-18T01:40:33;99929.16;;;11.15;100.00
29121;BME280;16191;49.548;8.658;2023-03-18T01:43:18;99936.78;;;11.19;100.00
29121;BME280;16191;49.548;8.658;2023-03-18T01:45:56;99931.28;;;11.07;100.00
29121;BME280;16191;49.548;8.658;2023-03-18T01:48:30;99930.16;;;11.12;100.00
29121;BME280;16191;49.548;8.658;2023-03-18T01:51:05;99934.31;;;11.16;100.00
29121;BME280;16191;49.548;8.658;2023-03-18T01:53:42;99936.31;;;11.11;100.00
29121;BME280;16191;49.548;8.658;2023-03-18T01:56:10;99926.00;;;11.08;100.00
29121;BME280;16191;49.548;8.658;2023-03-18T01:58:42;99931.78;;;11.15;100.00
29121;BME280;16191;49.548;8.658;2023-03-18T02:01:26;99931.22;;;11.08;100.00
29121;BME280;16191;49.548;8.658;2023-03-18T02:03:56;99929.78;;;11.03;100.00
29121;BME280;16191;49.548;8.658;2023-03-18T02:06:23;99935.06;;;11.01;100.00
29121;BME280;16191;49.548;8.658;2023-03-18T02:08:58;99925.22;;;11.06;100.00
29121;BME280;16191;49.548;8.658;2023-03-18T02:11:30;99918.69;;;10.97;100.00
29121;BME280;16191;49.548;8.658;2023-03-18T02:13:59;99914.25;;;10.99;100.00
29121;BME280;16191;49.548;8.658;2023-03-18T02:16:41;99904.25;;;10.72;100.00
29121;BME280;16191;49.548;8.658;2023-03-18T02:22:02;99898.25;;;10.70;100.00
29121;BME280;16191;49.548;8.658;2023-03-18T02:30:07;99905.53;;;10.82;100.00
29121;BME280;16191;49.548;8.658;2023-03-18T02:32:58;99912.97;;;10.89;100.00
29121;BME280;16191;49.548;8.658;2023-03-18T02:35:46;99910.38;;;10.89;100.00
29121;BME280;16191;49.548;8.658;2023-03-18T02:38:40;99916.50;;;10.88;100.00
29121;BME280;16191;49.548;8.658;2023-03-18T02:41:34;99921.38;;;10.96;100.00
29121;BME280;16191;49.548;8.658;2023-03-18T02:44:22;99928.00;;;11.03;98.27
29121;BME280;16191;49.548;8.658;2023-03-18T02:47:16;99929.84;;;11.01;100.00
29121;BME280;16191;49.548;8.658;2023-03-18T02:49:46;99931.38;;;11.05;99.44
29121;BME280;16191;49.548;8.658;2023-03-18T02:52:13;99936.50;;;11.07;98.83
29121;BME280;16191;49.548;8.658;2023-03-18T02:54:40;99939.19;;;11.05;99.63
29121;BME280;16191;49.548;8.658;2023-03-18T02:57:06;99935.91;;;11.02;99.15
29121;BME280;16191;49.548;8.658;2023-03-18T02:59:35;99932.38;;;11.03;99.73
29121;BME280;16191;49.548;8.658;2023-03-18T03:02:01;99935.84;;;11.03;100.00
29121;BME280;16191;49.548;8.658;2023-03-18T03:04:29;99931.38;;;11.05;100.00
29121;BME280;16191;49.548;8.658;2023-03-18T03:06:56;99928.75;;;11.05;100.00
29121;BME280;16191;49.548;8.658;2023-03-18T03:09:36;99935.00;;;11.03;100.00
29121;BME280;16191;49.548;8.658;2023-03-18T03:12:05;99938.44;;;11.03;100.00
29121;BME280;16191;49.548;8.658;2023-03-18T03:14:35;99935.06;;;11.01;100.00
29121;BME280;16191;49.548;8.658;2023-03-18T03:17:02;99945.66;;;10.98;100.00
29121;BME280;16191;49.548;8.658;2023-03-18T03:19:29;99939.78;;;10.93;100.00
29121;BME280;16191;49.548;8.658;2023-03-18T03:21:56;99938.22;;;10.89;100.00
29121;BME280;16191;49.548;8.658;2023-03-18T03:24:23;99940.72;;;10.92;100.00
29121;BME280;16191;49.548;8.658;2023-03-18T03:26:50;99942.31;;;10.94;100.00
29121;BME280;16191;49.548;8.658;2023-03-18T03:29:17;99948.31;;;10.96;100.00
29121;BME280;16191;49.548;8.658;2023-03-18T03:31:43;99956.88;;;11.00;100.00
29121;BME280;16191;49.548;8.658;2023-03-18T03:34:10;99951.00;;;10.95;97.23
29121;BME280;16191;49.548;8.658;2023-03-18T03:36:37;99952.56;;;10.99;98.16
29121;BME280;16191;49.548;8.658;2023-03-18T03:39:03;99952.69;;;10.96;96.69
29121;BME280;16191;49.548;8.658;2023-03-18T03:41:33;99952.00;;;10.92;97.01
29121;BME280;16191;49.548;8.658;2023-03-18T03:44:00;99949.44;;;10.91;97.52
29121;BME280;16191;49.548;8.658;2023-03-18T03:46:26;99949.03;;;11.00;98.43
29121;BME280;16191;49.548;8.658;2023-03-18T03:48:53;99950.88;;;10.98;99.69
29121;BME280;16191;49.548;8.658;2023-03-18T03:51:20;99946.28;;;11.03;99.77
29121;BME280;16191;49.548;8.658;2023-03-18T03:53:47;99959.47;;;11.00;99.17
29121;BME280;16191;49.548;8.658;2023-03-18T03:56:14;99969.34;;;10.93;99.23
29121;BME280;16191;49.548;8.658;2023-03-18T03:58:41;99968.56;;;10.91;99.20
29121;BME280;16191;49.548;8.658;2023-03-18T04:01:07;99963.06;;;10.97;100.00
29121;BME280;16191;49.548;8.658;2023-03-18T04:03:34;99953.41;;;10.99;100.00
29121;BME280;16191;49.548;8.658;2023-03-18T04:06:04;99962.28;;;10.95;100.00
29121;BME280;16191;49.548;8.658;2023-03-18T04:08:33;99965.97;;;10.91;100.00
29121;BME280;16191;49.548;8.658;2023-03-18T04:11:00;99976.53;;;10.88;100.00
29121;BME280;16191;49.548;8.658;2023-03-18T04:13:30;99976.47;;;10.90;100.00
29121;BME280;16191;49.548;8.658;2023-03-18T04:15:56;99973.59;;;10.96;100.00
29121;BME280;16191;49.548;8.658;2023-03-18T04:18:23;99975.34;;;10.95;100.00
29121;BME280;16191;49.548;8.658;2023-03-18T04:20:51;99970.19;;;10.94;100.00
29121;BME280;16191;49.548;8.658;2023-03-18T04:23:36;99968.72;;;10.88;100.00
29121;BME280;16191;49.548;8.658;2023-03-18T04:26:03;99967.94;;;10.86;100.00
29121;BME280;16191;49.548;8.658;2023-03-18T04:28:31;99968.91;;;10.84;100.00
29121;BME280;16191;49.548;8.658;2023-03-18T04:30:58;99963.34;;;10.91;100.00
29121;BME280;16191;49.548;8.658;2023-03-18T04:33:25;99966.75;;;10.93;100.00
29121;BME280;16191;49.548;8.658;2023-03-18T04:35:51;99964.06;;;10.95;100.00
29121;BME280;16191;49.548;8.658;2023-03-18T04:38:18;99965.81;;;10.94;100.00
29121;BME280;16191;49.548;8.658;2023-03-18T04:40:49;99971.03;;;10.94;100.00
29121;BME280;16191;49.548;8.658;2023-03-18T04:43:16;99966.75;;;10.93;100.00
29121;BME280;16191;49.548;8.658;2023-03-18T04:45:44;99959.63;;;10.97;100.00
29121;BME280;16191;49.548;8.658;2023-03-18T04:48:12;99964.19;;;10.92;99.27
29121;BME280;16191;49.548;8.658;2023-03-18T04:50:40;99963.41;;;10.90;98.95
29121;BME280;16191;49.548;8.658;2023-03-18T04:53:11;99968.44;;;10.94;99.88
29121;BME280;16191;49.548;8.658;2023-03-18T04:55:39;99977.97;;;10.95;100.00
29121;BME280;16191;49.548;8.658;2023-03-18T04:58:09;99972.75;;;10.95;100.00
29121;BME280;16191;49.548;8.658;2023-03-18T05:00:40;99975.41;;;10.94;100.00
29121;BME280;16191;49.548;8.658;2023-03-18T05:03:18;99976.19;;;10.96;100.00
29121;BME280;16191;49.548;8.658;2023-03-18T05:05:45;99976.25;;;10.94;100.00
29121;BME280;16191;49.548;8.658;2023-03-18T05:08:14;99972.88;;;10.92;99.75
29121;BME280;16191;49.548;8.658;2023-03-18T05:10:42;99970.25;;;10.92;99.39
29121;BME280;16191;49.548;8.658;2023-03-18T05:13:11;99971.63;;;10.82;100.00
29121;BME280;16191;49.548;8.658;2023-03-18T05:15:37;99982.13;;;10.81;100.00
29121;BME280;16191;49.548;8.658;2023-03-18T05:18:04;99982.81;;;10.84;99.11
29121;BME280;16191;49.548;8.658;2023-03-18T05:20:32;99984.69;;;10.82;99.63
29121;BME280;16191;49.548;8.658;2023-03-18T05:23:01;99984.88;;;10.78;99.71
29121;BME280;16191;49.548;8.658;2023-03-18T05:25:42;99988.41;;;10.77;99.90
29121;BME280;16191;49.548;8.658;2023-03-18T05:28:09;99985.94;;;10.74;99.52
29121;BME280;16191;49.548;8.658;2023-03-18T05:30:47;99991.09;;;10.75;97.91
29121;BME280;16191;49.548;8.658;2023-03-18T05:33:15;99987.84;;;10.70;96.54
29121;BME280;16191;49.548;8.658;2023-03-18T05:35:50;99985.28;;;10.69;92.62
29121;BME280;16191;49.548;8.658;2023-03-18T05:38:21;99989.19;;;10.79;82.69
29121;BME280;16191;49.548;8.658;2023-03-18T05:40:48;99986.84;;;10.91;77.11
29121;BME280;16191;49.548;8.658;2023-03-18T05:43:20;99990.09;;;10.96;74.79
29121;BME280;16191;49.548;8.658;2023-03-18T05:45:51;100001.84;;;11.05;72.05
29121;BME280;16191;49.548;8.658;2023-03-18T05:48:22;99998.34;;;11.06;71.37
29121;BME280;16191;49.548;8.658;2023-03-18T05:50:53;99993.28;;;11.03;71.56
29121;BME280;16191;49.548;8.658;2023-03-18T05:53:23;99998.25;;;11.08;70.79
29121;BME280;16191;49.548;8.658;2023-03-18T05:55:58;100004.34;;;11.08;70.96
29121;BME280;16191;49.548;8.658;2023-03-18T05:58:25;100000.09;;;11.06;72.07
29121;BME280;16191;49.548;8.658;2023-03-18T06:01:10;99993.03;;;11.08;71.26
29121;BME280;16191;49.548;8.658;2023-03-18T06:03:37;99996.34;;;11.11;70.23
29121;BME280;16191;49.548;8.658;2023-03-18T06:06:03;100001.38;;;11.16;69.57
29121;BME280;16191;49.548;8.658;2023-03-18T06:08:30;100002.16;;;11.18;69.86
29121;BME280;16191;49.548;8.658;2023-03-18T06:10:57;100004.63;;;11.21;69.25
29121;BME280;16191;49.548;8.658;2023-03-18T06:13:24;100007.94;;;11.24;69.17
29121;BME280;16191;49.548;8.658;2023-03-18T06:15:56;100005.41;;;11.23;69.52
29121;BME280;16191;49.548;8.658;2023-03-18T06:18:24;100010.25;;;11.30;68.36
29121;BME280;16191;49.548;8.658;2023-03-18T06:20:51;100005.78;;;11.32;68.69
29121;BME280;16191;49.548;8.658;2023-03-18T06:23:17;100003.88;;;11.36;67.69
29121;BME280;16191;49.548;8.658;2023-03-18T06:25:44;100000.50;;;11.34;68.89
29121;BME280;16191;49.548;8.658;2023-03-18T06:28:13;100002.75;;;11.42;67.80
29121;BME280;16191;49.548;8.658;2023-03-18T06:30:40;100014.44;;;11.52;67.08
29121;BME280;16191;49.548;8.658;2023-03-18T06:33:09;100007.31;;;11.55;66.58
29121;BME280;16191;49.548;8.658;2023-03-18T06:35:36;100011.53;;;11.58;67.12
29121;BME280;16191;49.548;8.658;2023-03-18T06:38:03;100019.59;;;11.53;67.54
29121;BME280;16191;49.548;8.658;2023-03-18T06:40:33;100020.84;;;11.63;66.02
29121;BME280;16191;49.548;8.658;2023-03-18T06:42:59;100013.16;;;11.60;66.55
29121;BME280;16191;49.548;8.658;2023-03-18T06:45:35;100018.75;;;11.70;66.16
29121;BME280;16191;49.548;8.658;2023-03-18T06:48:05;100016.00;;;11.73;66.93
29121;BME280;16191;49.548;8.658;2023-03-18T06:50:35;100011.44;;;11.78;66.13
29121;BME280;16191;49.548;8.658;2023-03-18T06:53:10;100014.81;;;11.80;67.18
29121;BME280;16191;49.548;8.658;2023-03-18T06:55:38;100006.59;;;11.88;66.96
29121;BME280;16191;49.548;8.658;2023-03-18T06:58:05;100021.13;;;11.93;65.45
29121;BME280;16191;49.548;8.658;2023-03-18T07:00:48;100023.22;;;12.04;65.08
29121;BME280;16191;49.548;8.658;2023-03-18T07:03:20;100029.22;;;12.06;65.30
29121;BME280;16191;49.548;8.658;2023-03-18T07:05:48;100033.13;;;12.15;64.36
29121;BME280;16191;49.548;8.658;2023-03-18T07:08:14;100029.06;;;12.09;64.41
29121;BME280;16191;49.548;8.658;2023-03-18T07:10:42;100028.91;;;12.12;64.09
29121;BME280;16191;49.548;8.658;2023-03-18T07:13:12;100030.81;;;12.26;62.29
29121;BME280;16191;49.548;8.658;2023-03-18T07:15:39;100028.31;;;12.40;61.94
29121;BME280;16191;49.548;8.658;2023-03-18T07:18:06;100038.56;;;12.45;62.14
29121;BME280;16191;49.548;8.658;2023-03-18T07:20:33;100038.69;;;12.59;61.55
29121;BME280;16191;49.548;8.658;2023-03-18T07:23:02;100044.44;;;12.65;61.30
29121;BME280;16191;49.548;8.658;2023-03-18T07:25:29;100046.84;;;12.70;61.39
29121;BME280;16191;49.548;8.658;2023-03-18T07:27:58;100050.47;;;12.83;59.99
29121;BME280;16191;49.548;8.658;2023-03-18T07:30:30;100043.59;;;12.98;59.33
29121;BME280;16191;49.548;8.658;2023-03-18T07:32:57;100046.78;;;13.03;58.69
29121;BME280;16191;49.548;8.658;2023-03-18T07:35:25;100043.59;;;12.98;59.24
29121;BME280;16191;49.548;8.658;2023-03-18T07:37:51;100050.09;;;13.07;57.67
29121;BME280;16191;49.548;8.658;2023-03-18T07:40:18;100056.88;;;13.11;57.37
29121;BME280;16191;49.548;8.658;2023-03-18T07:42:45;100051.09;;;13.04;57.63
29121;BME280;16191;49.548;8.658;2023-03-18T07:45:11;100060.69;;;13.21;56.88
29121;BME280;16191;49.548;8.658;2023-03-18T07:47:38;100055.22;;;13.41;56.21
29121;BME280;16191;49.548;8.658;2023-03-18T07:50:05;100055.63;;;13.49;55.66
29121;BME280;16191;49.548;8.658;2023-03-18T07:52:31;100050.56;;;13.46;56.75
29121;BME280;16191;49.548;8.658;2023-03-18T07:54:59;100049.69;;;13.77;55.64
29121;BME280;16191;49.548;8.658;2023-03-18T07:57:25;100055.34;;;13.85;55.53
29121;BME280;16191;49.548;8.658;2023-03-18T07:59:52;100054.38;;;14.02;54.96
29121;BME280;16191;49.548;8.658;2023-03-18T08:02:18;100057.13;;;13.85;53.62
29121;BME280;16191;49.548;8.658;2023-03-18T08:04:47;100052.34;;;13.91;54.23
29121;BME280;16191;49.548;8.658;2023-03-18T08:07:13;100043.88;;;14.02;53.46
29121;BME280;16191;49.548;8.658;2023-03-18T08:09:40;100041.88;;;14.21;51.69
29121;BME280;16191;49.548;8.658;2023-03-18T08:12:07;100048.13;;;14.19;51.53
29121;BME280;16191;49.548;8.658;2023-03-18T08:14:34;100050.47;;;14.53;50.96
29121;BME280;16191;49.548;8.658;2023-03-18T08:17:01;100059.66;;;14.46;51.58
29121;BME280;16191;49.548;8.658;2023-03-18T08:19:29;100057.34;;;14.70;51.57
29121;BME280;16191;49.548;8.658;2023-03-18T08:21:55;100052.53;;;14.48;51.33
29121;BME280;16191;49.548;8.658;2023-03-18T08:24:23;100063.13;;;14.47;50.24
29121;BME280;16191;49.548;8.658;2023-03-18T08:26:49;100051.25;;;14.69;49.69
29121;BME280;16191;49.548;8.658;2023-03-18T08:29:16;100059.31;;;14.66;50.18
29121;BME280;16191;49.548;8.658;2023-03-18T08:31:43;100052.44;;;14.78;50.70
29121;BME280;16191;49.548;8.658;2023-03-18T08:34:09;100054.03;;;14.95;50.06
29121;BME280;16191;49.548;8.658;2023-03-18T08:36:36;100055.81;;;14.94;50.16
29121;BME280;16191;49.548;8.658;2023-03-18T08:39:02;100060.81;;;15.13;50.59
29121;BME280;16191;49.548;8.658;2023-03-18T08:41:30;100063.22;;;15.30;50.11
29121;BME280;16191;49.548;8.658;2023-03-18T08:43:57;100070.47;;;15.13;49.35
29121;BME280;16191;49.548;8.658;2023-03-18T08:46:24;100072.13;;;15.28;49.94
29121;BME280;16191;49.548;8.658;2023-03-18T08:48:50;100070.75;;;15.63;49.70
29121;BME280;16191;49.548;8.658;2023-03-18T08:51:20;100073.88;;;15.41;49.82
29121;BME280;16191;49.548;8.658;2023-03-18T08:53:47;100067.00;;;15.53;48.78
29121;BME280;16191;49.548;8.658;2023-03-18T08:56:14;100067.59;;;15.58;48.55
29121;BME280;16191;49.548;8.658;2023-03-18T08:58:42;100061.53;;;15.70;49.00
29121;BME280;16191;49.548;8.658;2023-03-18T09:01:11;100059.84;;;16.09;47.48
29121;BME280;16191;49.548;8.658;2023-03-18T09:03:38;100059.69;;;15.85;45.96
29121;BME280;16191;49.548;8.658;2023-03-18T09:06:05;100051.59;;;15.88;47.52
29121;BME280;16191;49.548;8.658;2023-03-18T09:08:31;100066.25;;;15.51;47.69
29121;BME280;16191;49.548;8.658;2023-03-18T09:10:58;100070.91;;;15.19;46.57
29121;BME280;16191;49.548;8.658;2023-03-18T09:13:25;100066.06;;;15.13;46.58
29121;BME280;16191;49.548;8.658;2023-03-18T09:15:52;100069.72;;;15.52;48.08
29121;BME280;16191;49.548;8.658;2023-03-18T09:18:20;100054.00;;;15.79;46.34
29121;BME280;16191;49.548;8.658;2023-03-18T09:20:48;100054.38;;;15.72;47.31
29121;BME280;16191;49.548;8.658;2023-03-18T09:23:14;100058.88;;;15.97;46.91
29121;BME280;16191;49.548;8.658;2023-03-18T09:25:44;100057.06;;;16.50;46.63
29121;BME280;16191;49.548;8.658;2023-03-18T09:28:12;100056.16;;;16.64;45.21
29121;BME280;16191;49.548;8.658;2023-03-18T09:30:39;100054.78;;;16.71;44.40
29121;BME280;16191;49.548;8.658;2023-03-18T09:33:07;100047.81;;;16.83;43.93
29121;BME280;16191;49.548;8.658;2023-03-18T09:35:34;100047.50;;;16.87;44.44
29121;BME280;16191;49.548;8.658;2023-03-18T09:38:02;100042.41;;;16.21;45.09
29121;BME280;16191;49.548;8.658;2023-03-18T09:40:32;100034.75;;;15.91;45.35
29121;BME280;16191;49.548;8.658;2023-03-18T09:49:20;100033.13;;;16.15;46.43
29121;BME280;16191;49.548;8.658;2023-03-18T09:54:40;100036.81;;;17.01;45.29
29121;BME280;16191;49.548;8.658;2023-03-18T09:57:31;100030.31;;;17.67;43.18
29121;BME280;16191;49.548;8.658;2023-03-18T10:00:04;100027.72;;;17.78;43.22
29121;BME280;16191;49.548;8.658;2023-03-18T10:02:49;100038.19;;;17.43;43.45
29121;BME280;16191;49.548;8.658;2023-03-18T10:08:17;100028.41;;;17.33;43.56
29121;BME280;16191;49.548;8.658;2023-03-18T10:10:46;100025.56;;;17.60;43.94
29121;BME280;16191;49.548;8.658;2023-03-18T10:13:20;100033.94;;;17.77;43.28
29121;BME280;16191;49.548;8.658;2023-03-18T10:15:52;100030.34;;;17.78;42.91
29121;BME280;16191;49.548;8.658;2023-03-18T10:18:24;100028.28;;;17.71;42.43
29121;BME280;16191;49.548;8.658;2023-03-18T10:26:24;100032.41;;;17.75;42.18
29121;BME280;16191;49.548;8.658;2023-03-18T10:29:08;100030.66;;;18.33;41.32
29121;BME280;16191;49.548;8.658;2023-03-18T10:34:45;100025.34;;;17.63;42.34
29121;BME280;16191;49.548;8.658;2023-03-18T10:37:30;100025.59;;;18.30;42.28
29121;BME280;16191;49.548;8.658;2023-03-18T10:40:10;100031.97;;;17.08;42.44
29121;BME280;16191;49.548;8.658;2023-03-18T10:42:39;100028.59;;;17.42;42.96
29121;BME280;16191;49.548;8.658;2023-03-18T10:45:29;100022.03;;;17.96;42.91
29121;BME280;16191;49.548;8.658;2023-03-18T10:48:19;100012.22;;;18.09;43.06
29121;BME280;16191;49.548;8.658;2023-03-18T10:51:05;100014.63;;;18.12;42.12
29121;BME280;16191;49.548;8.658;2023-03-18T10:53:45;100014.19;;;18.18;41.50
29121;BME280;16191;49.548;8.658;2023-03-18T10:56:14;100021.38;;;18.16;41.38
29121;BME280;16191;49.548;8.658;2023-03-18T10:58:41;100029.97;;;17.96;41.77
29121;BME280;16191;49.548;8.658;2023-03-18T11:01:11;100021.84;;;18.10;41.53
29121;BME280;16191;49.548;8.658;2023-03-18T11:03:48;100017.28;;;18.23;42.06
29121;BME280;16191;49.548;8.658;2023-03-18T11:06:20;100015.34;;;18.71;42.00
29121;BME280;16191;49.548;8.658;2023-03-18T11:08:59;100015.84;;;18.76;41.29
29121;BME280;16191;49.548;8.658;2023-03-18T11:11:28;100008.16;;;18.73;41.56
29121;BME280;16191;49.548;8.658;2023-03-18T11:14:00;100003.97;;;19.47;40.76
29121;BME280;16191;49.548;8.658;2023-03-18T11:18:56;100005.28;;;19.85;40.06
29121;BME280;16191;49.548;8.658;2023-03-18T11:21:25;100004.34;;;19.75;39.48
29121;BME280;16191;49.548;8.658;2023-03-18T11:23:58;99999.38;;;20.13;39.33
29121;BME280;16191;49.548;8.658;2023-03-18T11:26:46;99999.88;;;19.87;38.23
29121;BME280;16191;49.548;8.658;2023-03-18T11:29:20;99996.44;;;20.16;38.76
29121;BME280;16191;49.548;8.658;2023-03-18T11:31:54;100003.31;;;20.70;37.29
29121;BME280;16191;49.548;8.658;2023-03-18T11:34:24;100002.44;;;21.00;37.84
29121;BME280;16191;49.548;8.658;2023-03-18T11:37:11;100002.94;;;20.84;38.24
29121;BME280;16191;49.548;8.658;2023-03-18T11:39:39;100001.94;;;20.45;39.10
29121;BME280;16191;49.548;8.658;2023-03-18T11:42:33;99997.34;;;21.18;37.51
29121;BME280;16191;49.548;8.658;2023-03-18T11:45:00;100002.25;;;21.23;38.03
29121;BME280;16191;49.548;8.658;2023-03-18T11:47:29;99996.16;;;21.70;36.90
29121;BME280;16191;49.548;8.658;2023-03-18T11:49:58;99987.50;;;21.59;35.96
29121;BME280;16191;49.548;8.658;2023-03-18T11:52:39;99982.16;;;21.30;37.40
29121;BME280;16191;49.548;8.658;2023-03-18T11:55:37;99995.75;;;20.66;37.29
29121;BME280;16191;49.548;8.658;2023-03-18T12:07:32;99983.44;;;20.55;36.89
29121;BME280;16191;49.548;8.658;2023-03-18T12:10:17;99979.41;;;21.41;37.58
29121;BME280;16191;49.548;8.658;2023-03-18T12:21:43;99963.63;;;21.39;34.79
29121;BME280;16191;49.548;8.658;2023-03-18T12:24:30;99965.88;;;20.64;35.95
29121;BME280;16191;49.548;8.658;2023-03-18T12:35:14;99963.31;;;21.33;34.48
29121;BME280;16191;49.548;8.658;2023-03-18T12:41:11;99943.19;;;21.78;36.43
29121;BME280;16191;49.548;8.658;2023-03-18T12:44:21;99951.88;;;21.80;35.33
29121;BME280;16191;49.548;8.658;2023-03-18T12:47:02;99952.66;;;22.19;35.44
29121;BME280;16191;49.548;8.658;2023-03-18T12:49:36;99948.66;;;21.77;36.21
29121;BME280;16191;49.548;8.658;2023-03-18T12:52:07;99959.97;;;21.31;37.81
29121;BME280;16191;49.548;8.658;2023-03-18T12:54:45;99954.41;;;20.94;37.08
29121;BME280;16191;49.548;8.658;2023-03-18T12:57:22;99951.28;;;21.29;37.60
29121;BME280;16191;49.548;8.658;2023-03-18T12:59:56;99958.38;;;20.69;36.44
29121;BME280;16191;49.548;8.658;2023-03-18T13:05:24;99945.44;;;21.83;35.80
29121;BME280;16191;49.548;8.658;2023-03-18T13:10:33;99947.00;;;20.47;38.01
29121;BME280;16191;49.548;8.658;2023-03-18T13:13:05;99947.97;;;20.26;37.16
29121;BME280;16191;49.548;8.658;2023-03-18T13:15:42;99941.19;;;20.33;37.05
29121;BME280;16191;49.548;8.658;2023-03-18T13:18:23;99939.34;;;20.54;37.48
29121;BME280;16191;49.548;8.658;2023-03-18T13:20:55;99939.09;;;19.53;37.83
29121;BME280;16191;49.548;8.658;2023-03-18T13:29:34;99939.84;;;19.44;38.01
29121;BME280;16191;49.548;8.658;2023-03-18T13:32:18;99932.59;;;19.57;37.88
29121;BME280;16191;49.548;8.658;2023-03-18T13:35:12;99928.50;;;20.06;37.75
29121;BME280;16191;49.548;8.658;2023-03-18T13:38:09;99924.19;;;21.44;36.32
29121;BME280;16191;49.548;8.658;2023-03-18T13:43:20;99932.59;;;21.40;35.41
29121;BME280;16191;49.548;8.658;2023-03-18T13:45:51;99935.44;;;20.58;36.45
29121;BME280;16191;49.548;8.658;2023-03-18T13:48:33;99932.72;;;21.48;35.25
29121;BME280;16191;49.548;8.658;2023-03-18T13:53:52;99925.75;;;22.32;33.64
29121;BME280;16191;49.548;8.658;2023-03-18T14:04:50;99922.66;;;21.51;34.84
29121;BME280;16191;49.548;8.658;2023-03-18T14:07:21;99912.34;;;21.58;35.37
29121;BME280;16191;49.548;8.658;2023-03-18T14:12:44;99928.56;;;20.76;35.69
29121;BME280;16191;49.548;8.658;2023-03-18T14:15:36;99913.97;;;21.69;35.58
29121;BME280;16191;49.548;8.658;2023-03-18T14:18:17;99920.06;;;20.92;36.34
29121;BME280;16191;49.548;8.658;2023-03-18T14:20:44;99922.63;;;20.53;36.83
29121;BME280;16191;49.548;8.658;2023-03-18T14:23:24;99921.84;;;20.72;36.21
29121;BME280;16191;49.548;8.658;2023-03-18T14:26:05;99920.94;;;20.52;36.17
29121;BME280;16191;49.548;8.658;2023-03-18T14:28:43;99918.22;;;20.12;36.84
29121;BME280;16191;49.548;8.658;2023-03-18T14:31:18;99918.63;;;19.66;37.60
29121;BME280;16191;49.548;8.658;2023-03-18T14:33:56;99907.44;;;19.83;37.58
29121;BME280;16191;49.548;8.658;2023-03-18T14:39:26;99907.31;;;19.85;37.87
29121;BME280;16191;49.548;8.658;2023-03-18T14:41:56;99898.50;;;20.05;37.62
29121;BME280;16191;49.548;8.658;2023-03-18T14:44:30;99905.75;;;19.82;37.94
29121;BME280;16191;49.548;8.658;2023-03-18T14:47:03;99897.88;;;20.13;37.37